createdAt,value
2022-08-29T00:01:30.860Z,99781.72
2022-08-29T00:03:59.460Z,99777.66
2022-08-29T00:06:27.686Z,99772.19
2022-08-29T00:08:55.100Z,99777.47
2022-08-29T00:11:22.834Z,99774.78
2022-08-29T00:13:50.402Z,99780.84
2022-08-29T00:16:18.992Z,99779.16
2022-08-29T00:18:46.712Z,99784.41
2022-08-29T00:21:14.193Z,99789.66
2022-08-29T00:23:42.915Z,99782.69
2022-08-29T00:26:11.110Z,99783.22
2022-08-29T00:28:38.633Z,99782.34
2022-08-29T00:31:06.187Z,99790.22
2022-08-29T00:33:33.989Z,99784.12
2022-08-29T00:36:02.714Z,99791.34
2022-08-29T00:38:31.719Z,99789.69
2022-08-29T00:40:59.473Z,99781.88
2022-08-29T00:43:31.275Z,99790.00
2022-08-29T00:46:18.160Z,99790.91
2022-08-29T00:48:50.481Z,99797.97
2022-08-29T00:51:22.585Z,99796.97
2022-08-29T00:53:58.265Z,99807.59
2022-08-29T00:56:26.481Z,99790.06
2022-08-29T00:58:57.107Z,99798.84
2022-08-29T01:01:25.198Z,99800.63
2022-08-29T01:03:53.611Z,99798.78
2022-08-29T01:06:22.311Z,99812.84
2022-08-29T01:08:57.252Z,99811.16
2022-08-29T01:11:47.379Z,99808.44
2022-08-29T01:14:16.883Z,99804.94
2022-08-29T01:16:46.134Z,99807.62
2022-08-29T01:19:35.804Z,99805.88
2022-08-29T01:22:07.776Z,99805.81
2022-08-29T01:24:39.895Z,99804.09
2022-08-29T01:27:08.176Z,99811.09
2022-08-29T01:29:36.181Z,99811.81
2022-08-29T01:32:04.281Z,99818.19
2022-08-29T01:34:32.095Z,99816.41
2022-08-29T01:37:03.457Z,99812.91
2022-08-29T01:39:34.018Z,99809.38
2022-08-29T01:42:06.363Z,99818.16
2022-08-29T01:44:33.804Z,99823.41
2022-08-29T01:47:03.407Z,99812.84
2022-08-29T01:49:34.541Z,99809.38
2022-08-29T01:52:04.149Z,99806.72
2022-08-29T01:54:32.637Z,99818.13
2022-08-29T01:57:01.598Z,99812.88
2022-08-29T01:59:30.717Z,99812.88
2022-08-29T02:02:00.856Z,99811.16
2022-08-29T02:04:28.869Z,99819.03
2022-08-29T02:06:56.537Z,99811.16
2022-08-29T02:09:25.222Z,99822.41
2022-08-29T02:11:55.082Z,99819.94
2022-08-29T02:14:23.695Z,99813.78
2022-08-29T02:16:51.129Z,99813.78
2022-08-29T02:19:19.470Z,99811.16
2022-08-29T02:21:46.986Z,99803.25
2022-08-29T02:24:25.404Z,99809.38
2022-08-29T02:26:55.310Z,99804.13
2022-08-29T02:29:23.180Z,99801.44
2022-08-29T02:31:50.675Z,99793.59
2022-08-29T02:34:18.459Z,99795.31
2022-08-29T02:36:49.023Z,99791.75
2022-08-29T02:39:18.055Z,99793.53
2022-08-29T02:41:46.006Z,99786.50
2022-08-29T02:44:13.596Z,99787.34
2022-08-29T02:46:41.157Z,99788.28
2022-08-29T02:49:08.928Z,99786.94
2022-08-29T02:51:36.359Z,99793.38
2022-08-29T02:54:03.988Z,99787.28
2022-08-29T02:56:31.654Z,99789.00
2022-08-29T02:58:59.801Z,99799.62
2022-08-29T03:01:27.691Z,99798.81
2022-08-29T03:03:55.877Z,99797.03
2022-08-29T03:06:23.626Z,99791.72
2022-08-29T03:08:51.576Z,99798.75
2022-08-29T03:11:21.961Z,99801.47
2022-08-29T03:13:49.547Z,99800.56
2022-08-29T03:16:17.287Z,99805.72
2022-08-29T03:18:44.974Z,99803.06
2022-08-29T03:21:17.158Z,99810.13
2022-08-29T03:23:44.928Z,99814.56
2022-08-29T03:26:12.422Z,99812.44
2022-08-29T03:28:39.871Z,99819.91
2022-08-29T03:31:07.761Z,99824.47
2022-08-29T03:33:35.315Z,99821.25
2022-08-29T03:36:03.520Z,99826.34
2022-08-29T03:38:42.585Z,99838.16
2022-08-29T03:41:10.010Z,99833.81
2022-08-29T03:43:37.615Z,99836.06
2022-08-29T03:46:05.371Z,99834.28
2022-08-29T03:48:33.881Z,99834.06
2022-08-29T03:51:01.359Z,99832.66
2022-08-29T03:53:30.724Z,99837.75
2022-08-29T03:55:58.435Z,99842.38
2022-08-29T03:58:25.994Z,99842.13
2022-08-29T04:00:53.717Z,99861.06
2022-08-29T04:03:24.975Z,99862.00
2022-08-29T04:05:59.199Z,99862.66
2022-08-29T04:08:27.214Z,99855.56
2022-08-29T04:10:54.680Z,99858.81
2022-08-29T04:13:22.213Z,99861.44
2022-08-29T04:15:50.492Z,99876.16
2022-08-29T04:18:21.617Z,99862.22
2022-08-29T04:20:50.244Z,99866.81
2022-08-29T04:23:17.663Z,99873.19
2022-08-29T04:25:45.137Z,99866.13
2022-08-29T04:28:14.596Z,99864.16
2022-08-29T04:30:51.206Z,99867.72
2022-08-29T04:33:22.744Z,99872.19
2022-08-29T04:35:51.853Z,99871.63
2022-08-29T04:38:19.846Z,99884.91
2022-08-29T04:40:48.030Z,99880.03
2022-08-29T04:43:15.424Z,99876.94
2022-08-29T04:45:42.910Z,99875.97
2022-08-29T04:48:10.909Z,99880.22
2022-08-29T04:50:39.138Z,99880.81
2022-08-29T04:53:06.650Z,99880.44
2022-08-29T04:55:34.365Z,99880.47
2022-08-29T04:58:01.971Z,99882.84
2022-08-29T05:00:31.502Z,99884.69
2022-08-29T05:03:00.237Z,99889.28
2022-08-29T05:05:28.068Z,99885.28
2022-08-29T05:07:55.489Z,99884.56
2022-08-29T05:10:23.510Z,99881.34
2022-08-29T05:12:50.909Z,99881.38
2022-08-29T05:15:18.763Z,99880.97
2022-08-29T05:17:46.443Z,99874.88
2022-08-29T05:20:14.164Z,99880.50
2022-08-29T05:22:42.206Z,99882.31
2022-08-29T05:25:17.390Z,99887.53
2022-08-29T05:27:46.701Z,99891.12
2022-08-29T05:30:16.397Z,99883.22
2022-08-29T05:32:52.031Z,99885.88
2022-08-29T05:35:19.830Z,99894.97
2022-08-29T05:37:47.313Z,99888.44
2022-08-29T05:40:14.735Z,99892.91
2022-08-29T05:42:42.950Z,99893.66
2022-08-29T05:45:11.016Z,99892.63
2022-08-29T05:47:38.590Z,99900.94
2022-08-29T05:50:07.549Z,99898.91
2022-08-29T05:52:34.992Z,99906.03
2022-08-29T05:55:02.526Z,99904.31
2022-08-29T05:57:30.340Z,99902.44
2022-08-29T05:59:58.053Z,99905.66
2022-08-29T06:02:25.552Z,99899.44
2022-08-29T06:04:53.552Z,99901.84
2022-08-29T06:07:20.970Z,99898.88
2022-08-29T06:09:48.568Z,99901.37
2022-08-29T06:12:16.572Z,99897.75
2022-08-29T06:14:50.287Z,99917.72
2022-08-29T06:17:19.016Z,99913.62
2022-08-29T06:19:50.119Z,99922.94
2022-08-29T06:22:19.346Z,99923.69
2022-08-29T06:24:47.489Z,99922.50
2022-08-29T06:27:16.247Z,99931.41
2022-08-29T06:29:44.088Z,99937.12
2022-08-29T06:32:13.071Z,99936.41
2022-08-29T06:34:40.887Z,99929.81
2022-08-29T06:37:08.525Z,99934.03
2022-08-29T06:39:36.457Z,99939.16
2022-08-29T06:42:04.346Z,99949.97
2022-08-29T06:44:32.059Z,99948.84
2022-08-29T06:47:00.091Z,99956.97
2022-08-29T06:49:28.063Z,99954.34
2022-08-29T06:51:58.341Z,99956.19
2022-08-29T06:54:28.659Z,99960.56
2022-08-29T06:56:57.781Z,99955.19
2022-08-29T06:59:25.748Z,99964.03
2022-08-29T07:01:55.411Z,99960.56
2022-08-29T07:04:23.220Z,99963.25
2022-08-29T07:06:54.741Z,99965.91
2022-08-29T07:09:22.546Z,99958.81
2022-08-29T07:11:50.000Z,99965.84
2022-08-29T07:14:18.247Z,99962.31
2022-08-29T07:16:45.921Z,99962.34
2022-08-29T07:19:13.340Z,99965.78
2022-08-29T07:21:41.073Z,99969.13
2022-08-29T07:24:08.774Z,99959.72
2022-08-29T07:26:42.246Z,99955.31
2022-08-29T07:29:13.826Z,99954.28
2022-08-29T07:31:41.740Z,99955.19
2022-08-29T07:34:09.787Z,99963.25
2022-08-29T07:36:38.101Z,99964.13
2022-08-29T07:39:08.832Z,99961.19
2022-08-29T07:41:38.110Z,99964.03
2022-08-29T07:44:05.921Z,99967.59
2022-08-29T07:46:33.475Z,99966.06
2022-08-29T07:49:01.027Z,99967.56
2022-08-29T07:51:28.978Z,99960.22
2022-08-29T07:53:57.369Z,99966.38
2022-08-29T07:56:28.666Z,99963.56
2022-08-29T07:58:57.900Z,99965.16
2022-08-29T08:01:25.754Z,99963.03
2022-08-29T08:03:54.297Z,99969.19
2022-08-29T08:06:27.065Z,99958.91
2022-08-29T08:08:55.590Z,99963.87
2022-08-29T08:11:24.659Z,99969.91
2022-08-29T08:13:55.974Z,99975.66
2022-08-29T08:16:25.668Z,99982.28
2022-08-29T08:18:53.872Z,99972.72
2022-08-29T08:21:21.535Z,99969.41
2022-08-29T08:23:49.463Z,99973.19
2022-08-29T08:26:17.417Z,99968.19
2022-08-29T08:28:45.348Z,99970.53
2022-08-29T08:31:14.973Z,99976.78
2022-08-29T08:33:44.838Z,99972.09
2022-08-29T08:36:18.349Z,99968.06
2022-08-29T08:38:46.890Z,99977.31
2022-08-29T08:41:27.417Z,99981.84
2022-08-29T08:44:00.613Z,99975.66
2022-08-29T08:46:37.658Z,99973.59
2022-08-29T08:49:27.404Z,99974.75
2022-08-29T08:51:59.521Z,99971.34
2022-08-29T08:54:29.676Z,99968.81
2022-08-29T08:57:11.677Z,99977.72
2022-08-29T08:59:45.399Z,99981.69
2022-08-29T09:02:45.469Z,99969.31
2022-08-29T09:05:39.417Z,99976.41
2022-08-29T09:08:09.969Z,99974.97
2022-08-29T09:10:58.581Z,99975.78
2022-08-29T09:13:39.400Z,99966.75
2022-08-29T09:16:29.295Z,99969.63
2022-08-29T09:19:00.512Z,99969.47
2022-08-29T09:21:41.033Z,99964.53
2022-08-29T09:24:13.750Z,99968.00
2022-08-29T09:26:41.521Z,99963.03
2022-08-29T09:29:10.045Z,99959.81
2022-08-29T09:31:37.757Z,99967.50
2022-08-29T09:34:08.249Z,99962.41
2022-08-29T09:36:47.773Z,99961.25
2022-08-29T09:39:21.048Z,99961.09
2022-08-29T09:41:53.139Z,99957.81
2022-08-29T09:44:32.508Z,99956.41
2022-08-29T09:47:12.516Z,99963.13
2022-08-29T09:49:42.489Z,99962.31
2022-08-29T09:52:14.387Z,99968.19
2022-08-29T09:54:43.589Z,99970.84
2022-08-29T09:57:25.819Z,99962.81
2022-08-29T10:00:16.367Z,99959.38
2022-08-29T10:02:49.934Z,99967.84
2022-08-29T10:05:28.003Z,99968.13
2022-08-29T10:07:55.803Z,99973.84
2022-08-29T10:10:25.880Z,99973.69
2022-08-29T10:13:08.669Z,99967.84
2022-08-29T10:15:51.181Z,99972.22
2022-08-29T10:19:04.657Z,99980.78
2022-08-29T10:21:41.532Z,99978.09
2022-08-29T10:24:19.586Z,99978.09
2022-08-29T10:27:03.751Z,99970.56
2022-08-29T10:29:48.096Z,99977.38
2022-08-29T10:32:25.125Z,99977.03
2022-08-29T10:35:14.307Z,99976.97
2022-08-29T10:37:47.709Z,99976.44
2022-08-29T10:40:21.803Z,99968.03
2022-08-29T10:42:51.534Z,99967.62
2022-08-29T10:45:36.281Z,99962.44
2022-08-29T10:48:11.822Z,99957.41
2022-08-29T10:50:46.897Z,99954.84
2022-08-29T10:53:21.591Z,99955.78
2022-08-29T10:56:05.895Z,99961.69
2022-08-29T10:58:53.341Z,99958.41
2022-08-29T11:01:27.770Z,99949.63
2022-08-29T11:04:01.903Z,99953.69
2022-08-29T11:06:34.843Z,99952.06
2022-08-29T11:09:21.509Z,99938.63
2022-08-29T11:12:18.110Z,99940.41
2022-08-29T11:14:53.969Z,99938.81
2022-08-29T11:17:26.092Z,99945.50
2022-08-29T11:20:00.832Z,99941.69
2022-08-29T11:22:40.479Z,99944.69
2022-08-29T11:25:18.222Z,99941.69
2022-08-29T11:28:04.425Z,99942.75
2022-08-29T11:30:59.290Z,99932.78
2022-08-29T11:33:37.818Z,99932.87
2022-08-29T11:36:08.645Z,99924.53
2022-08-29T11:39:00.266Z,99937.78
2022-08-29T11:41:35.731Z,99939.97
2022-08-29T11:44:40.014Z,99934.09
2022-08-29T11:47:41.118Z,99927.66
2022-08-29T11:50:14.766Z,99933.69
2022-08-29T11:53:20.886Z,99944.06
2022-08-29T11:56:13.419Z,99929.03
2022-08-29T11:58:48.095Z,99932.03
2022-08-29T12:01:24.897Z,99924.13
2022-08-29T12:03:56.844Z,99927.94
2022-08-29T12:06:55.945Z,99925.03
2022-08-29T12:09:41.401Z,99917.84
2022-08-29T12:12:15.580Z,99921.09
2022-08-29T12:14:50.569Z,99921.00
2022-08-29T12:17:23.360Z,99917.53
2022-08-29T12:19:56.863Z,99914.16
2022-08-29T12:22:52.119Z,99915.78
2022-08-29T12:25:45.898Z,99917.81
2022-08-29T12:28:16.093Z,99915.81
2022-08-29T12:30:47.140Z,99903.72
2022-08-29T12:33:17.475Z,99904.47
2022-08-29T12:36:07.786Z,99905.47
2022-08-29T12:39:07.172Z,99907.09
2022-08-29T12:41:51.326Z,99902.72
2022-08-29T12:44:25.230Z,99896.81
2022-08-29T12:47:02.805Z,99885.84
2022-08-29T12:49:39.747Z,99884.59
2022-08-29T12:52:28.664Z,99885.19
2022-08-29T12:54:57.897Z,99885.09
2022-08-29T12:57:36.911Z,99873.56
2022-08-29T13:00:11.417Z,99879.06
2022-08-29T13:02:39.253Z,99874.91
2022-08-29T13:05:26.914Z,99868.84
2022-08-29T13:08:01.787Z,99857.75
2022-08-29T13:10:29.757Z,99868.12
2022-08-29T13:13:06.995Z,99859.34
2022-08-29T13:15:34.938Z,99858.59
2022-08-29T13:18:03.346Z,99855.91
2022-08-29T13:20:43.216Z,99861.31
2022-08-29T13:23:24.301Z,99857.47
2022-08-29T13:26:02.068Z,99858.00
2022-08-29T13:28:43.127Z,99860.44
2022-08-29T13:31:16.766Z,99847.81
2022-08-29T13:33:59.624Z,99861.38
2022-08-29T13:36:27.038Z,99851.53
2022-08-29T13:39:26.478Z,99848.34
2022-08-29T13:42:02.940Z,99850.44
2022-08-29T13:44:45.574Z,99847.75
2022-08-29T13:47:16.080Z,99852.66
2022-08-29T13:49:43.806Z,99850.38
2022-08-29T13:52:11.836Z,99842.78
2022-08-29T13:54:43.067Z,99837.41
2022-08-29T13:57:18.933Z,99844.91
2022-08-29T13:59:46.606Z,99841.87
2022-08-29T14:02:14.981Z,99839.59
2022-08-29T14:04:47.975Z,99840.13
2022-08-29T14:07:22.073Z,99844.91
2022-08-29T14:09:49.670Z,99834.84
2022-08-29T14:12:17.977Z,99839.16
2022-08-29T14:14:45.634Z,99837.72
2022-08-29T14:17:18.391Z,99834.59
2022-08-29T14:19:47.011Z,99835.56
2022-08-29T14:22:15.140Z,99833.06
2022-08-29T14:24:42.813Z,99839.84
2022-08-29T14:27:10.485Z,99832.28
2022-08-29T14:29:38.482Z,99841.31
2022-08-29T14:32:05.968Z,99836.09
2022-08-29T14:34:33.392Z,99831.47
2022-08-29T14:37:01.617Z,99839.97
2022-08-29T14:39:30.552Z,99830.88
2022-08-29T14:41:57.974Z,99823.53
2022-08-29T14:44:25.920Z,99828.09
2022-08-29T14:46:53.354Z,99829.47
2022-08-29T14:49:25.294Z,99829.31
2022-08-29T14:51:53.040Z,99834.66
2022-08-29T14:54:20.494Z,99829.97
2022-08-29T14:56:49.459Z,99822.12
2022-08-29T14:59:19.407Z,99831.31
2022-08-29T15:01:52.978Z,99830.00
2022-08-29T15:04:35.410Z,99829.00
2022-08-29T15:07:11.944Z,99830.53
2022-08-29T15:09:41.734Z,99831.31
2022-08-29T15:12:10.443Z,99828.22
2022-08-29T15:14:38.116Z,99832.34
2022-08-29T15:17:06.372Z,99829.03
2022-08-29T15:22:23.035Z,99826.63
2022-08-29T15:24:51.356Z,99826.19
2022-08-29T15:27:27.346Z,99830.69
2022-08-29T15:29:56.854Z,99833.59
2022-08-29T15:32:25.884Z,99818.06
2022-08-29T15:34:53.394Z,99829.28
2022-08-29T15:37:22.040Z,99823.06
2022-08-29T15:39:54.997Z,99820.47
2022-08-29T15:42:28.969Z,99821.91
2022-08-29T15:44:58.667Z,99830.84
2022-08-29T15:47:27.173Z,99829.31
2022-08-29T15:49:54.946Z,99836.69
2022-08-29T15:52:22.419Z,99838.03
2022-08-29T15:54:50.739Z,99825.69
2022-08-29T15:57:19.549Z,99830.78
2022-08-29T15:59:58.188Z,99825.59
2022-08-29T16:02:28.047Z,99820.53
2022-08-29T16:04:57.357Z,99828.38
2022-08-29T16:07:29.093Z,99820.84
2022-08-29T16:10:05.759Z,99824.56
2022-08-29T16:12:39.809Z,99833.72
2022-08-29T16:15:09.993Z,99831.22
2022-08-29T16:17:39.254Z,99826.44
2022-08-29T16:20:11.530Z,99825.56
2022-08-29T16:22:40.366Z,99819.50
2022-08-29T16:25:09.913Z,99820.69
2022-08-29T16:27:37.729Z,99818.59
2022-08-29T16:30:06.636Z,99821.03
2022-08-29T16:32:34.642Z,99822.25
2022-08-29T16:35:02.393Z,99822.06
2022-08-29T16:37:29.912Z,99818.47
2022-08-29T16:39:59.276Z,99817.66
2022-08-29T16:42:30.449Z,99833.44
2022-08-29T16:44:59.915Z,99831.41
2022-08-29T16:47:28.006Z,99832.72
2022-08-29T16:49:55.658Z,99836.22
2022-08-29T16:52:23.495Z,99847.94
2022-08-29T16:54:52.067Z,99843.81
2022-08-29T16:57:21.808Z,99855.06
2022-08-29T16:59:49.566Z,99857.31
2022-08-29T17:02:17.354Z,99858.81
2022-08-29T17:04:46.639Z,99870.28
2022-08-29T17:07:14.577Z,99863.28
2022-08-29T17:09:42.030Z,99876.41
2022-08-29T17:12:09.861Z,99864.69
2022-08-29T17:14:37.677Z,99883.16
2022-08-29T17:17:05.339Z,99878.13
2022-08-29T17:19:33.739Z,99888.09
2022-08-29T17:22:01.649Z,99882.38
2022-08-29T17:24:29.118Z,99883.16
2022-08-29T17:26:57.626Z,99894.81
2022-08-29T17:29:25.436Z,99889.41
2022-08-29T17:31:52.930Z,99892.78
2022-08-29T17:34:20.348Z,99896.13
2022-08-29T17:36:49.727Z,99887.22
2022-08-29T17:39:17.229Z,99898.00
2022-08-29T17:41:50.622Z,99901.06
2022-08-29T17:44:18.458Z,99902.13
2022-08-29T17:46:46.328Z,99897.69
2022-08-29T17:49:14.068Z,99908.16
2022-08-29T17:51:42.149Z,99911.50
2022-08-29T17:54:14.931Z,99921.84
2022-08-29T17:56:55.234Z,99921.53
2022-08-29T17:59:23.967Z,99927.56
2022-08-29T18:01:52.512Z,99928.59
2022-08-29T18:04:20.708Z,99932.53
2022-08-29T18:06:48.411Z,99937.41
2022-08-29T18:09:15.857Z,99942.53
2022-08-29T18:11:47.706Z,99942.88
2022-08-29T18:14:16.889Z,99944.72
2022-08-29T18:16:44.803Z,99948.09
2022-08-29T18:19:13.569Z,99948.72
2022-08-29T18:21:41.655Z,99956.88
2022-08-29T18:24:13.870Z,99946.72
2022-08-29T18:26:42.621Z,99949.38
2022-08-29T18:29:11.144Z,99950.72
2022-08-29T18:31:40.867Z,99953.38
2022-08-29T18:34:09.553Z,99960.66
2022-08-29T18:36:40.049Z,99965.84
2022-08-29T18:39:08.505Z,99961.06
2022-08-29T18:41:36.077Z,99966.56
2022-08-29T18:44:04.014Z,99970.50
2022-08-29T18:46:32.450Z,99974.72
2022-08-29T18:49:00.159Z,99972.28
2022-08-29T18:51:28.050Z,99970.09
2022-08-29T18:53:57.673Z,99967.47
2022-08-29T18:56:26.966Z,99971.19
2022-08-29T18:58:58.867Z,99971.72
2022-08-29T19:01:29.037Z,99974.69
2022-08-29T19:03:58.999Z,99978.31
2022-08-29T19:06:27.463Z,99972.63
2022-08-29T19:08:56.607Z,99978.72
2022-08-29T19:11:25.383Z,99978.81
2022-08-29T19:15:00.836Z,99978.72
2022-08-29T19:16:41.058Z,99985.03
2022-08-29T19:19:13.430Z,99990.22
2022-08-29T19:21:42.353Z,99983.38
2022-08-29T19:24:10.276Z,99991.13
2022-08-29T19:26:40.165Z,99987.44
2022-08-29T19:29:12.998Z,99988.88
2022-08-29T19:31:42.133Z,99993.50
2022-08-29T19:34:09.670Z,99995.44
2022-08-29T19:36:39.158Z,99999.38
2022-08-29T19:39:06.836Z,100012.00
2022-08-29T19:41:34.938Z,100009.94
2022-08-29T19:44:02.847Z,100012.53
2022-08-29T19:46:32.448Z,100014.47
2022-08-29T19:49:00.453Z,100008.59
2022-08-29T19:51:32.637Z,100004.69
2022-08-29T19:54:03.228Z,100003.16
2022-08-29T19:56:33.410Z,100003.31
2022-08-29T19:59:01.820Z,100003.34
2022-08-29T20:01:29.868Z,100011.66
2022-08-29T20:03:57.758Z,100018.06
2022-08-29T20:06:25.793Z,100020.03
2022-08-29T20:08:54.158Z,100019.84
2022-08-29T20:11:25.073Z,100015.25
2022-08-29T20:13:59.405Z,100018.75
2022-08-29T20:16:30.454Z,100019.63
2022-08-29T20:18:58.974Z,100012.72
2022-08-29T20:21:26.877Z,100020.06
2022-08-29T20:23:58.349Z,100021.84
2022-08-29T20:26:34.630Z,100025.19
2022-08-29T20:29:05.311Z,100013.53
2022-08-29T20:31:33.075Z,100022.69
2022-08-29T20:34:01.023Z,100020.13
2022-08-29T20:36:47.558Z,100018.59
2022-08-29T20:39:18.018Z,100022.09
2022-08-29T20:41:50.686Z,100025.56
2022-08-29T20:44:20.407Z,100027.31
2022-08-29T20:46:49.136Z,100033.53
2022-08-29T20:49:19.622Z,100033.44
2022-08-29T20:51:48.397Z,100030.69
2022-08-29T20:54:19.272Z,100027.84
2022-08-29T20:56:48.786Z,100023.63
2022-08-29T20:59:16.667Z,100023.69
2022-08-29T21:01:44.497Z,100025.44
2022-08-29T21:04:31.542Z,100014.88
2022-08-29T21:07:01.645Z,100025.53
2022-08-29T21:09:29.189Z,100015.91
2022-08-29T21:11:57.122Z,100015.88
2022-08-29T21:14:27.333Z,100017.69
2022-08-29T21:16:56.803Z,100022.12
2022-08-29T21:19:27.350Z,100020.37
2022-08-29T21:21:57.322Z,100013.31
2022-08-29T21:24:25.180Z,100012.44
2022-08-29T21:26:52.869Z,100016.84
2022-08-29T21:29:20.882Z,100011.50
2022-08-29T21:31:49.453Z,100018.59
2022-08-29T21:34:17.408Z,100030.97
2022-08-29T21:36:45.277Z,100019.53
2022-08-29T21:39:13.715Z,100016.87
2022-08-29T21:41:57.432Z,100019.53
2022-08-29T21:44:24.834Z,100021.28
2022-08-29T21:46:52.796Z,100023.91
2022-08-29T21:49:21.875Z,100015.97
2022-08-29T21:51:49.530Z,100016.84
2022-08-29T21:54:17.572Z,100022.06
2022-08-29T21:56:45.904Z,100029.22
2022-08-29T21:59:14.985Z,100030.97
2022-08-29T22:01:43.832Z,100027.47
2022-08-29T22:04:18.667Z,100034.47
2022-08-29T22:06:55.108Z,100031.00
2022-08-29T22:09:23.629Z,100034.44
2022-08-29T22:11:51.974Z,100022.19
2022-08-29T22:14:19.396Z,100029.09
2022-08-29T22:16:47.462Z,100029.16
2022-08-29T22:19:16.962Z,100032.75
2022-08-29T22:21:51.988Z,100027.41
2022-08-29T22:24:20.104Z,100035.38
2022-08-29T22:26:47.767Z,100038.88
2022-08-29T22:29:16.092Z,100034.47
2022-08-29T22:31:44.993Z,100038.06
2022-08-29T22:34:14.407Z,100035.31
2022-08-29T22:36:42.776Z,100046.69
2022-08-29T22:39:10.887Z,100044.88
2022-08-29T22:41:38.469Z,100045.72
2022-08-29T22:46:54.702Z,100049.19
2022-08-29T22:49:22.171Z,100048.16
2022-08-29T22:51:50.336Z,100058.75
2022-08-29T22:54:36.776Z,100057.09
2022-08-29T22:57:10.246Z,100058.75
2022-08-29T22:59:38.705Z,100070.94
2022-08-29T23:02:07.524Z,100067.56
2022-08-29T23:04:35.434Z,100065.91
2022-08-29T23:07:03.946Z,100066.97
2022-08-29T23:09:35.242Z,100069.56
2022-08-29T23:12:05.916Z,100068.75
2022-08-29T23:14:37.720Z,100064.34
2022-08-29T23:17:07.075Z,100078.53
2022-08-29T23:19:35.450Z,100077.63
2022-08-29T23:22:03.098Z,100074.06
2022-08-29T23:24:31.728Z,100074.97
2022-08-29T23:26:59.277Z,100074.09
2022-08-29T23:29:27.463Z,100082.91
2022-08-29T23:31:55.181Z,100070.56
2022-08-29T23:34:23.599Z,100075.00
2022-08-29T23:36:51.133Z,100085.56
2022-08-29T23:39:18.926Z,100085.53
2022-08-29T23:41:46.471Z,100078.50
2022-08-29T23:44:13.875Z,100093.47
2022-08-29T23:46:41.681Z,100084.66
2022-08-29T23:49:09.243Z,100084.69
2022-08-29T23:51:36.692Z,100085.56
2022-08-29T23:54:04.390Z,100083.81
2022-08-29T23:56:32.132Z,100085.56
2022-08-29T23:58:59.794Z,100083.78
